Time;durP1;ratioP1;P1;durP2;ratioP2;P2;SDS_P1;SDS_P2;PMS_P1;PMS_P2;Temp;Humidity;BMP_temperature;BMP_pressure;BME280_temperature;BME280_humidity;BME280_pressure;Samples;Min_cycle;Max_cycle;Signal;HPM_P1;HPM_P2
2022/01/21 00:01:30;;;;;;;6.70;1.35;;;;;;;10.54;45.15;103134.25;4941306;28;20035;-62
2022/01/21 00:03:55;;;;;;;4.68;1.60;;;;;;;10.53;44.44;103127.13;4978334;28;20113;-62
2022/01/21 00:06:21;;;;;;;8.45;1.95;;;;;;;10.51;45.14;103118.31;4973898;28;20023;-62
2022/01/21 00:08:47;;;;;;;9.05;2.05;;;;;;;10.51;44.62;103121.88;4974425;28;20041;-62
2022/01/21 00:11:14;;;;;;;14.90;2.15;;;;;;;10.43;44.57;103104.41;4974315;28;20027;-62
2022/01/21 00:13:40;;;;;;;8.30;1.88;;;;;;;10.50;44.27;103111.22;4973871;28;20026;-61
2022/01/21 00:16:11;;;;;;;15.50;1.75;;;;;;;10.46;44.44;103121.22;4974332;28;20034;-62
2022/01/21 00:18:39;;;;;;;14.85;2.67;;;;;;;10.48;44.21;103124.69;4954467;28;20215;-62
2022/01/21 00:32:00;;;;;;;9.32;1.92;;;;;;;10.40;44.56;103142.06;4971789;28;20084;-62
2022/01/21 00:34:26;;;;;;;6.75;2.20;;;;;;;10.40;44.67;103131.34;4975408;28;20030;-62
2022/01/21 00:36:51;;;;;;;6.45;1.80;;;;;;;10.40;44.65;103134.03;4961414;28;20026;-62
2022/01/21 00:39:21;;;;;;;11.70;1.95;;;;;;;10.39;45.25;103132.28;4956632;28;20035;-61
2022/01/21 00:41:58;;;;;;;13.63;2.38;;;;;;;10.42;44.84;103134.81;4959665;28;20595;-62
2022/01/21 00:44:23;;;;;;;5.53;1.83;;;;;;;10.39;45.36;103129.59;4974350;28;20035;-62
2022/01/21 00:46:49;;;;;;;7.15;1.85;;;;;;;10.41;44.76;103133.09;4974687;28;20038;-62
2022/01/21 00:49:15;;;;;;;12.52;1.95;;;;;;;10.43;44.39;103147.28;4976802;28;20023;-62
2022/01/21 00:51:41;;;;;;;9.07;2.03;;;;;;;10.45;44.50;103134.69;4956679;28;20396;-62
2022/01/21 00:54:06;;;;;;;8.73;2.50;;;;;;;10.39;45.00;103118.88;4973974;28;20027;-62
2022/01/21 00:56:31;;;;;;;8.07;2.70;;;;;;;10.47;44.56;103127.44;4976762;28;20153;-62
2022/01/21 00:58:57;;;;;;;4.80;1.88;;;;;;;10.47;44.51;103135.47;4988033;28;20045;-62
2022/01/21 01:01:22;;;;;;;9.80;2.40;;;;;;;10.47;44.50;103139.00;4982003;28;20033;-62
2022/01/21 01:03:48;;;;;;;11.95;1.90;;;;;;;10.47;44.64;103138.13;4974944;28;20030;-62
2022/01/21 01:06:13;;;;;;;8.07;2.72;;;;;;;10.46;45.23;103141.78;4973841;28;20073;-62
2022/01/21 01:08:38;;;;;;;10.25;1.90;;;;;;;10.46;44.67;103157.84;4973736;28;20033;-62
2022/01/21 01:21:46;;;;;;;8.05;1.60;;;;;;;10.49;45.06;103157.72;4974811;28;20127;-62
2022/01/21 01:29:24;;;;;;;6.70;1.80;;;;;;;10.57;45.54;103147.50;4973878;28;20531;-61
2022/01/21 01:31:50;;;;;;;12.35;2.03;;;;;;;10.59;44.91;103137.56;4974555;28;20093;-62
2022/01/21 01:34:15;;;;;;;11.70;2.45;;;;;;;10.62;44.94;103137.44;4975035;28;20497;-62
2022/01/21 01:36:45;;;;;;;4.40;1.60;;;;;;;10.62;45.10;103142.78;4974588;28;20026;-62
2022/01/21 01:41:47;;;;;;;9.13;2.13;;;;;;;10.64;44.15;103135.53;4976377;28;20034;-61
2022/01/21 01:49:41;;;;;;;9.43;1.60;;;;;;;10.63;45.02;103128.47;4997725;28;20084;-62
2022/01/21 01:52:09;;;;;;;10.15;2.38;;;;;;;10.59;44.52;103113.47;4997848;28;20034;-62
2022/01/21 01:54:37;;;;;;;13.90;2.05;;;;;;;10.64;45.15;103138.22;4980423;28;20030;-62
2022/01/21 01:57:03;;;;;;;9.27;1.55;;;;;;;10.64;45.32;103135.53;4964408;28;20042;-62
2022/01/21 01:59:28;;;;;;;16.83;2.53;;;;;;;10.64;44.87;103130.19;4980097;28;20023;-62
2022/01/21 02:01:56;;;;;;;7.22;1.90;;;;;;;10.64;45.24;103138.22;4997490;28;20030;-62
2022/01/21 02:04:22;;;;;;;8.95;1.95;;;;;;;10.64;44.96;103135.53;4997311;28;20026;-62
2022/01/21 02:06:48;;;;;;;9.00;1.73;;;;;;;10.64;45.25;103135.53;4997393;28;20040;-62
2022/01/21 02:09:14;;;;;;;6.72;1.95;;;;;;;10.64;44.65;103131.97;4997477;28;20030;-62
2022/01/21 02:11:39;;;;;;;8.77;1.83;;;;;;;10.62;45.02;103137.44;4979899;28;20558;-62
2022/01/21 02:14:08;;;;;;;12.55;2.40;;;;;;;10.55;45.58;103136.00;4963972;28;20032;-62
2022/01/21 02:21:28;;;;;;;8.40;1.70;;;;;;;10.55;45.46;103136.00;4997416;28;20034;-61
2022/01/21 02:22:04;;;;;;;9.90;1.60;;;;;;;10.51;45.07;103137.94;4996952;28;20210;-62
2022/01/21 02:24:41;;;;;;;8.65;1.98;;;;;;;10.49;44.57;103137.16;4979577;28;20109;-62
2022/01/21 02:27:06;;;;;;;6.85;1.95;;;;;;;10.46;44.69;103131.06;4981342;28;20030;-62
2022/01/21 02:29:32;;;;;;;9.60;2.33;;;;;;;10.42;45.13;103134.81;4963547;28;20032;-62
2022/01/21 02:31:59;;;;;;;3.50;1.75;;;;;;;10.40;45.27;103126.00;4979758;28;20022;-62
2022/01/21 02:34:26;;;;;;;7.88;1.88;;;;;;;10.33;45.60;103124.56;4979769;28;20026;-62
2022/01/21 02:36:51;;;;;;;7.40;2.47;;;;;;;10.35;45.09;103138.72;4996621;28;20034;-62
2022/01/21 02:39:17;;;;;;;3.33;1.20;;;;;;;10.32;45.18;103142.44;4996756;28;20080;-62
2022/01/21 02:41:43;;;;;;;9.90;1.73;;;;;;;10.29;45.23;103139.88;4996851;28;20038;-61
2022/01/21 02:44:15;;;;;;;6.72;1.80;;;;;;;10.27;46.04;103148.94;4996396;28;20484;-62
2022/01/21 02:46:45;;;;;;;7.72;1.73;;;;;;;10.25;45.21;103148.13;4996769;28;20030;-62
2022/01/21 02:49:10;;;;;;;7.47;2.25;;;;;;;10.17;44.77;103136.88;4996860;28;20030;-61
2022/01/21 02:51:36;;;;;;;6.15;1.45;;;;;;;10.22;45.32;103148.25;4996558;28;20037;-62
2022/01/21 02:54:04;;;;;;;5.10;1.40;;;;;;;10.19;45.52;103151.94;4996929;28;20126;-62
2022/01/21 02:56:31;;;;;;;8.68;1.13;;;;;;;10.19;45.40;103148.41;4979652;28;20452;-62
2022/01/21 02:58:57;;;;;;;11.88;1.63;;;;;;;10.17;45.30;103150.28;4979392;28;20034;-62
2022/01/21 03:01:24;;;;;;;9.40;3.10;;;;;;;10.18;45.35;103152.03;4996590;28;20484;-62
2022/01/21 03:03:49;;;;;;;11.77;2.03;;;;;;;10.16;45.38;103156.59;4979317;28;20439;-62
2022/01/21 03:06:16;;;;;;;2.58;1.50;;;;;;;10.16;44.91;103153.91;4979344;28;20034;-62
2022/01/21 03:08:46;;;;;;;4.88;1.55;;;;;;;10.15;45.37;103152.16;4979040;28;20033;-62
2022/01/21 03:11:14;;;;;;;9.05;1.67;;;;;;;10.11;44.99;103153.19;4996735;28;20026;-62
2022/01/21 03:13:41;;;;;;;10.77;1.63;;;;;;;10.13;44.91;103154.06;4963071;28;20476;-62
2022/01/21 03:16:06;;;;;;;6.75;1.35;;;;;;;10.12;45.41;103153.13;4996389;28;20045;-62
2022/01/21 03:18:32;;;;;;;11.02;1.55;;;;;;;10.11;45.48;103159.41;4996782;28;20030;-61
2022/01/21 03:20:57;;;;;;;6.63;1.20;;;;;;;10.09;44.92;103152.41;4996623;28;20026;-62
2022/01/21 03:23:25;;;;;;;5.35;1.00;;;;;;;10.08;45.43;103156.03;4996409;28;20052;-61
2022/01/21 03:25:50;;;;;;;3.63;1.10;;;;;;;10.09;45.46;103168.47;4996177;28;20018;-62
2022/01/21 03:28:15;;;;;;;9.48;1.67;;;;;;;10.06;45.60;103169.47;4978723;28;20022;-62
2022/01/21 03:30:41;;;;;;;5.90;1.95;;;;;;;10.05;45.09;103177.59;4996105;28;20026;-62
2022/01/21 03:33:07;;;;;;;7.30;1.00;;;;;;;10.03;45.48;103168.72;4978753;28;20377;-62
2022/01/21 03:35:33;;;;;;;4.38;1.98;;;;;;;10.02;45.59;103172.38;4978549;28;20172;-62
2022/01/21 03:37:58;;;;;;;4.53;1.10;;;;;;;9.98;45.48;103160.03;4995971;28;20034;-62
2022/01/21 03:40:24;;;;;;;8.43;1.48;;;;;;;9.93;44.75;103155.78;4996308;28;20087;-62
2022/01/21 03:42:49;;;;;;;7.78;1.40;;;;;;;9.91;45.29;103157.63;4975209;28;20042;-62
2022/01/21 03:45:15;;;;;;;4.45;1.73;;;;;;;9.86;44.94;103162.31;4976930;28;20156;-62
2022/01/21 03:47:42;;;;;;;9.20;1.50;;;;;;;9.85;45.09;103165.94;4976564;28;20436;-62
2022/01/21 03:52:52;;;;;;;3.30;1.55;;;;;;;9.82;45.36;103166.09;4976191;28;20098;-62
2022/01/21 03:55:17;;;;;;;2.35;1.25;;;;;;;9.83;44.80;103161.56;4974929;28;20050;-62
2022/01/21 03:57:43;;;;;;;12.75;2.25;;;;;;;9.84;45.79;103169.56;4958732;28;20031;-62
2022/01/21 04:00:11;;;;;;;7.25;1.70;;;;;;;9.82;45.31;103166.09;4976454;28;20026;-62
2022/01/21 04:02:36;;;;;;;4.45;1.90;;;;;;;9.82;45.15;103160.75;4976036;28;20129;-62
2022/01/21 04:05:02;;;;;;;9.05;1.35;;;;;;;9.81;45.45;103166.13;4975011;28;20455;-61
2022/01/21 04:07:27;;;;;;;5.05;1.65;;;;;;;9.79;45.21;103160.88;4974712;28;20516;-62
2022/01/21 04:09:53;;;;;;;7.35;1.40;;;;;;;9.79;45.13;103171.56;4976139;28;20066;-62
2022/01/21 04:12:18;;;;;;;3.95;1.40;;;;;;;9.79;45.29;103174.25;4974812;28;20163;-62
2022/01/21 04:14:43;;;;;;;9.10;1.80;;;;;;;9.77;45.00;103167.22;4975816;28;20031;-62
2022/01/21 04:17:09;;;;;;;5.10;1.13;;;;;;;9.78;44.89;103169.81;4974617;28;20046;-62
2022/01/21 04:19:34;;;;;;;8.57;1.60;;;;;;;9.76;44.83;103171.69;4975863;28;20473;-62
2022/01/21 04:22:00;;;;;;;7.75;1.23;;;;;;;9.72;45.13;103175.44;4958722;28;20027;-62
2022/01/21 04:24:25;;;;;;;7.03;1.55;;;;;;;9.71;44.59;103168.38;4974736;28;20030;-61
2022/01/21 04:26:51;;;;;;;9.80;1.80;;;;;;;9.69;45.11;103167.53;4975818;28;20034;-61
2022/01/21 04:29:16;;;;;;;11.05;1.88;;;;;;;9.66;45.21;103162.31;4974381;28;20034;-61
2022/01/21 04:31:41;;;;;;;11.50;1.95;;;;;;;9.66;45.17;103164.16;4974410;28;20026;-61
2022/01/21 04:34:07;;;;;;;1.88;1.60;;;;;;;9.65;45.71;103162.41;4975965;28;20041;-62
2022/01/21 04:36:34;;;;;;;5.53;2.10;;;;;;;9.63;45.76;103151.75;4958382;28;20030;-62
2022/01/21 04:39:01;;;;;;;9.30;1.63;;;;;;;9.63;45.31;103158.91;4974366;28;20023;-62
2022/01/21 04:47:11;;;;;;;6.97;2.25;;;;;;;9.62;45.15;103158.03;4975340;28;20436;-62
2022/01/21 04:47:20;;;;;;;6.22;2.00;;;;;;;9.57;45.01;103154.69;4994792;28;20064;-62
2022/01/21 04:49:46;;;;;;;6.55;1.35;;;;;;;9.55;45.41;103153.03;4994755;28;20500;-62
2022/01/21 04:52:12;;;;;;;8.32;1.67;;;;;;;9.53;45.89;103155.75;4977384;28;20050;-62
2022/01/21 04:54:37;;;;;;;11.32;1.95;;;;;;;9.53;44.83;103161.09;4994620;28;20112;-62
2022/01/21 04:57:04;;;;;;;6.20;2.00;;;;;;;9.51;45.33;103157.63;4977307;28;20568;-61
2022/01/21 04:59:30;;;;;;;6.03;1.55;;;;;;;9.44;45.14;103150.78;4977427;28;20030;-62
2022/01/21 05:01:56;;;;;;;5.38;1.92;;;;;;;9.48;45.32;103168.47;4961057;28;20388;-62
2022/01/21 05:04:21;;;;;;;8.95;1.75;;;;;;;9.46;45.52;103166.78;4994421;28;20101;-62
2022/01/21 05:06:49;;;;;;;6.32;1.88;;;;;;;9.43;45.59;103170.47;4994815;28;20472;-62
2022/01/21 05:09:17;;;;;;;15.38;2.42;;;;;;;9.46;46.13;103182.84;4977556;28;20365;-61
2022/01/21 05:11:44;;;;;;;9.50;2.05;;;;;;;9.46;45.91;103177.50;4977299;28;20026;-61
2022/01/21 05:16:48;;;;;;;4.32;2.20;;;;;;;9.34;44.91;103146.78;4994877;28;20022;-62
2022/01/21 05:19:16;;;;;;;11.55;2.00;;;;;;;9.45;45.06;103165.91;4994640;28;20102;-62
2022/01/21 05:21:43;;;;;;;9.85;1.55;;;;;;;9.45;46.37;103162.38;4977457;28;20037;-62
2022/01/21 05:24:09;;;;;;;12.52;2.05;;;;;;;9.43;46.22;103156.22;4977419;28;20391;-62
2022/01/21 05:26:39;;;;;;;6.78;1.70;;;;;;;9.40;45.27;103162.56;4977019;28;20053;-62
2022/01/21 05:29:10;;;;;;;4.65;2.00;;;;;;;9.41;46.12;103166.97;4977737;28;20377;-62
2022/01/21 05:31:36;;;;;;;7.00;1.85;;;;;;;9.40;45.81;103157.22;4994520;28;20072;-62
2022/01/21 05:34:02;;;;;;;4.25;1.40;;;;;;;9.40;46.04;103173.28;4994423;28;20388;-61
2022/01/21 05:36:30;;;;;;;3.97;2.10;;;;;;;9.39;45.37;103163.50;4994290;28;20037;-62
2022/01/21 05:38:56;;;;;;;8.82;2.00;;;;;;;9.38;45.65;103169.75;4994528;28;20046;-62
2022/01/21 05:41:23;;;;;;;11.98;1.77;;;;;;;9.40;44.80;103177.75;4994278;28;20026;-62
2022/01/21 05:43:50;;;;;;;4.85;1.98;;;;;;;9.40;45.26;103177.75;4973367;28;20054;-62
2022/01/21 05:48:59;;;;;;;6.47;1.67;;;;;;;9.42;45.76;103178.53;4974977;28;20045;-62
2022/01/21 05:51:25;;;;;;;4.10;1.77;;;;;;;9.43;45.62;103173.16;4975020;28;20031;-61
2022/01/21 05:53:50;;;;;;;7.00;1.77;;;;;;;9.39;46.12;103163.50;4973623;28;20018;-62
2022/01/21 05:56:15;;;;;;;8.02;1.88;;;;;;;9.45;45.52;103173.94;4975060;28;20101;-62
2022/01/21 05:58:41;;;;;;;8.32;1.50;;;;;;;9.43;46.15;103173.16;4974544;28;20074;-61
2022/01/21 06:01:06;;;;;;;8.25;2.35;;;;;;;9.44;46.24;103177.53;4974646;28;20030;-62
2022/01/21 06:03:32;;;;;;;9.73;1.60;;;;;;;9.49;46.26;103182.72;4974384;28;20481;-62
2022/01/21 06:05:58;;;;;;;9.82;2.20;;;;;;;9.49;45.38;103178.22;4974302;28;20102;-61
2022/01/21 06:08:23;;;;;;;8.25;1.83;;;;;;;9.50;46.12;103179.97;4973502;28;20027;-62
2022/01/21 06:10:49;;;;;;;13.52;2.55;;;;;;;9.48;46.27;103181.84;4974556;28;20493;-62
2022/01/21 06:13:17;;;;;;;6.18;1.75;;;;;;;9.46;45.92;103173.03;4973221;28;20038;-62
2022/01/21 06:15:43;;;;;;;8.90;2.38;;;;;;;9.51;45.65;103184.38;4974663;28;20022;-61
2022/01/21 06:18:08;;;;;;;4.45;1.73;;;;;;;9.45;46.22;103176.63;4974622;28;20031;-61
2022/01/21 06:20:34;;;;;;;12.43;2.40;;;;;;;9.45;46.34;103184.63;4973252;28;20431;-62
2022/01/21 06:22:59;;;;;;;5.93;1.85;;;;;;;9.43;45.78;103181.16;4956748;28;20027;-62
2022/01/21 06:25:24;;;;;;;2.00;1.70;;;;;;;9.38;46.06;103176.00;4973236;28;20023;-62
2022/01/21 06:27:50;;;;;;;6.97;2.40;;;;;;;9.38;45.43;103179.63;4974687;28;20026;-61
2022/01/21 06:30:15;;;;;;;8.02;2.78;;;;;;;9.39;46.05;103190.22;4961239;28;20031;-62
2022/01/21 06:32:41;;;;;;;8.05;2.97;;;;;;;9.33;46.19;103193.16;4977812;28;20476;-62
2022/01/21 06:35:11;;;;;;;5.88;1.83;;;;;;;9.36;45.51;103206.41;4976313;28;20118;-62
2022/01/21 06:37:37;;;;;;;3.67;2.22;;;;;;;9.33;45.56;103209.22;4978032;28;20038;-62
2022/01/21 06:40:06;;;;;;;7.32;1.90;;;;;;;9.29;45.60;103199.59;4976661;28;20384;-62
2022/01/21 06:42:32;;;;;;;5.50;2.28;;;;;;;9.30;45.62;103204.84;4976288;28;20030;-62
2022/01/21 06:44:57;;;;;;;5.10;2.58;;;;;;;9.29;45.64;103212.97;4997013;28;20506;-62
2022/01/21 06:47:23;;;;;;;8.98;1.92;;;;;;;9.26;45.58;103208.59;4963712;28;20421;-62
2022/01/21 06:49:48;;;;;;;9.32;2.15;;;;;;;9.28;45.61;103216.56;4962878;28;20045;-62
2022/01/21 06:52:14;;;;;;;7.85;2.03;;;;;;;9.26;45.83;103213.06;4979170;28;20117;-61
2022/01/21 06:54:39;;;;;;;9.98;3.17;;;;;;;9.22;45.94;103216.78;4996690;28;20026;-61
2022/01/21 06:57:05;;;;;;;10.27;2.30;;;;;;;9.22;46.05;103228.38;4979116;28;20026;-62
2022/01/21 06:59:30;;;;;;;7.15;2.55;;;;;;;9.21;46.06;103225.78;4996640;28;20018;-62
2022/01/21 07:01:56;;;;;;;5.65;2.72;;;;;;;9.20;45.74;103234.72;4963334;28;20034;-62
2022/01/21 07:04:21;;;;;;;6.18;2.50;;;;;;;9.19;46.61;103235.63;4979472;28;20023;-62
2022/01/21 07:06:46;;;;;;;5.18;2.15;;;;;;;9.17;45.36;103245.53;4996705;28;20370;-62
2022/01/21 07:09:12;;;;;;;9.98;2.90;;;;;;;9.13;46.07;103238.53;4996700;28;20034;-62
2022/01/21 07:11:37;;;;;;;6.63;2.53;;;;;;;9.11;46.40;103241.28;4979182;28;20037;-61
2022/01/21 07:14:03;;;;;;;3.92;2.15;;;;;;;9.07;46.14;103236.97;4979047;28;20168;-62
2022/01/21 07:16:28;;;;;;;7.25;2.75;;;;;;;9.15;45.75;103250.06;4974611;28;20037;-62
2022/01/21 07:18:54;;;;;;;12.60;2.60;;;;;;;9.15;46.22;103244.72;4976855;28;20516;-62
2022/01/21 07:21:19;;;;;;;10.43;2.30;;;;;;;9.16;45.77;103249.13;4976974;28;20027;-62
2022/01/21 07:23:44;;;;;;;5.95;2.33;;;;;;;9.16;45.57;103249.13;4975501;28;20066;-62
2022/01/21 07:26:12;;;;;;;5.80;2.17;;;;;;;9.17;46.07;103257.09;4976662;28;20030;-62
2022/01/21 07:28:37;;;;;;;4.45;2.25;;;;;;;9.17;46.33;103253.53;4975410;28;20041;-62
2022/01/21 07:31:03;;;;;;;6.20;2.75;;;;;;;9.18;45.76;103244.59;4959329;28;20034;-62
2022/01/21 07:33:28;;;;;;;4.80;2.10;;;;;;;9.15;46.14;103242.06;4976378;28;20066;-62
2022/01/21 07:35:54;;;;;;;4.60;2.42;;;;;;;9.17;46.08;103245.53;4974980;28;20035;-62
2022/01/21 07:38:20;;;;;;;7.18;2.78;;;;;;;9.16;45.91;103243.78;4975624;28;20035;-62
2022/01/21 07:40:45;;;;;;;12.55;3.45;;;;;;;9.20;46.32;103256.09;4975893;28;20034;-62
2022/01/21 07:43:10;;;;;;;10.93;3.65;;;;;;;9.21;46.35;103247.16;4974923;28;20054;-62
2022/01/21 07:45:37;;;;;;;5.22;3.20;;;;;;;9.22;46.20;103255.09;4974813;28;20502;-62
2022/01/21 07:48:03;;;;;;;8.57;3.20;;;;;;;9.24;45.78;103253.22;4976077;28;20026;-61
2022/01/21 07:50:29;;;;;;;7.78;2.55;;;;;;;9.26;46.45;103261.22;4974756;28;20101;-62
2022/01/21 07:52:54;;;;;;;6.53;3.15;;;;;;;9.29;45.55;103263.78;4975986;28;20503;-62
2022/01/21 07:55:19;;;;;;;6.15;2.72;;;;;;;9.31;46.65;103269.91;4974776;28;20110;-62
2022/01/21 07:57:45;;;;;;;8.10;2.70;;;;;;;9.33;46.67;103265.38;4975731;28;20031;-62
2022/01/21 08:00:11;;;;;;;3.60;2.20;;;;;;;9.32;46.10;103269.00;4990752;28;20147;-61
2022/01/21 08:02:37;;;;;;;6.93;2.42;;;;;;;9.39;45.67;103270.47;4975991;28;20504;-62
2022/01/21 08:05:04;;;;;;;7.50;2.35;;;;;;;9.39;45.82;103267.81;4990650;28;20027;-62
2022/01/21 08:07:30;;;;;;;4.32;2.60;;;;;;;9.45;46.49;103270.22;4974455;28;20049;-61
2022/01/21 08:09:55;;;;;;;5.47;2.20;;;;;;;9.48;45.87;103266.56;4975689;28;20030;-62
2022/01/21 08:12:20;;;;;;;7.32;2.95;;;;;;;9.51;45.89;103267.31;4975533;28;20038;-63
2022/01/21 08:14:46;;;;;;;8.95;2.70;;;;;;;9.51;46.61;103271.78;4975674;28;20026;-62
2022/01/21 08:17:11;;;;;;;9.63;3.63;;;;;;;9.52;46.47;103268.19;4975498;28;20031;-62
2022/01/21 08:19:37;;;;;;;13.48;3.83;;;;;;;9.61;46.26;103271.34;4975416;28;20070;-62
2022/01/21 08:22:03;;;;;;;6.13;2.97;;;;;;;9.66;46.50;103265.81;4975493;28;20035;-62
2022/01/21 08:24:28;;;;;;;10.88;3.92;;;;;;;9.69;45.86;103260.31;4975590;28;20030;-62
2022/01/21 08:26:54;;;;;;;15.18;4.50;;;;;;;9.68;46.75;103263.94;4974300;28;20033;-61
2022/01/21 08:29:19;;;;;;;12.75;3.92;;;;;;;9.73;45.86;103276.22;4975446;28;20035;-61
2022/01/21 08:31:45;;;;;;;11.38;4.95;;;;;;;9.76;46.00;103262.69;4957851;28;20031;-62
2022/01/21 08:34:11;;;;;;;13.27;4.72;;;;;;;9.82;46.02;103253.53;4974293;28;20483;-62
2022/01/21 08:36:38;;;;;;;10.30;4.30;;;;;;;9.85;46.42;103256.94;4975161;28;20026;-62
2022/01/21 08:39:04;;;;;;;17.48;4.57;;;;;;;9.88;46.29;103251.44;4975210;28;20400;-62
2022/01/21 08:41:30;;;;;;;17.88;5.43;;;;;;;9.90;46.41;103246.94;4973935;28;20041;-62
2022/01/21 08:43:55;;;;;;;14.75;4.10;;;;;;;10.00;46.13;103259.91;4985974;28;20082;-62
2022/01/21 08:46:21;;;;;;;9.13;3.55;;;;;;;10.07;45.40;103259.59;4994295;28;20026;-62
2022/01/21 08:48:47;;;;;;;11.57;3.78;;;;;;;10.20;45.82;103267.97;4994608;28;20381;-62
2022/01/21 08:51:18;;;;;;;12.15;4.43;;;;;;;10.26;46.05;103268.59;4994212;28;20033;-62
2022/01/21 08:53:45;;;;;;;8.75;2.88;;;;;;;10.22;45.66;103244.66;4994338;28;20069;-62
2022/01/21 08:56:13;;;;;;;8.93;4.30;;;;;;;10.38;46.21;103269.88;4994278;28;20026;-63
2022/01/21 08:58:39;;;;;;;14.45;4.82;;;;;;;10.38;46.37;103251.13;4994389;28;20431;-62
2022/01/21 09:01:04;;;;;;;17.35;4.43;;;;;;;10.43;46.63;103254.44;4976678;28;20030;-62
2022/01/21 09:03:30;;;;;;;15.98;4.25;;;;;;;10.46;46.51;103275.75;4994054;28;20069;-62
2022/01/21 09:05:56;;;;;;;13.70;4.00;;;;;;;10.47;46.69;103272.09;4976777;28;20043;-61
2022/01/21 09:08:24;;;;;;;12.68;4.18;;;;;;;10.51;46.28;103274.59;4994400;28;20045;-61
2022/01/21 09:10:50;;;;;;;13.50;3.53;;;;;;;10.56;46.08;103270.84;4976935;28;20112;-62
2022/01/21 09:13:16;;;;;;;9.13;3.30;;;;;;;10.61;46.37;103261.66;4994171;28;20064;-62
2022/01/21 09:15:41;;;;;;;10.30;2.88;;;;;;;10.68;46.06;103259.56;4994219;28;20026;-62
2022/01/21 09:18:06;;;;;;;6.15;2.80;;;;;;;10.74;46.11;103254.81;4977095;28;20073;-62
2022/01/21 09:20:36;;;;;;;12.73;3.35;;;;;;;10.82;46.03;103263.34;4994202;28;20038;-62
2022/01/21 09:23:03;;;;;;;8.95;4.05;;;;;;;10.93;46.25;103262.84;4957579;28;20485;-62
2022/01/21 09:25:29;;;;;;;13.73;4.03;;;;;;;11.07;45.91;103258.59;4957090;28;20481;-62
2022/01/21 09:27:54;;;;;;;7.88;3.00;;;;;;;11.15;46.14;103271.63;4974607;28;20172;-62
2022/01/21 09:30:20;;;;;;;11.10;3.55;;;;;;;11.27;46.00;103270.19;4974281;28;20038;-62
2022/01/21 09:32:45;;;;;;;5.07;2.85;;;;;;;11.35;45.42;103268.00;4974388;28;20031;-63
2022/01/21 09:35:11;;;;;;;8.88;3.30;;;;;;;11.56;45.30;103266.94;4974695;28;20592;-63
2022/01/21 09:37:37;;;;;;;12.85;2.70;;;;;;;11.70;45.70;103259.09;4957477;28;20037;-62
2022/01/21 09:40:06;;;;;;;4.55;3.03;;;;;;;11.83;45.35;103259.38;4957391;28;20082;-62
2022/01/21 09:42:33;;;;;;;5.30;3.15;;;;;;;11.92;45.93;103259.75;4941230;28;20026;-62
2022/01/21 09:44:59;;;;;;;13.57;3.30;;;;;;;12.00;45.43;103252.19;4974034;28;20401;-62
2022/01/21 09:47:25;;;;;;;10.80;3.50;;;;;;;12.09;45.89;103257.06;4956676;28;20042;-62
2022/01/21 09:49:51;;;;;;;8.45;4.45;;;;;;;12.27;45.54;103260.63;4974773;28;20041;-63
2022/01/21 09:52:18;;;;;;;17.52;4.80;;;;;;;12.52;45.67;103260.19;4957716;28;20066;-62
2022/01/21 09:54:48;;;;;;;8.05;4.13;;;;;;;12.52;45.12;103249.44;4974567;28;20026;-62
2022/01/21 09:57:22;;;;;;;10.13;3.63;;;;;;;12.53;45.34;103268.19;4941912;28;20089;-63
2022/01/21 09:59:51;;;;;;;5.25;2.55;;;;;;;12.55;44.88;103270.78;4957617;28;20117;-63
2022/01/21 10:02:19;;;;;;;7.60;3.00;;;;;;;12.54;45.78;103275.28;4941951;28;20248;-63
2022/01/21 10:04:49;;;;;;;6.32;2.60;;;;;;;12.50;45.24;103281.78;4978091;28;20023;-62
2022/01/21 10:07:18;;;;;;;4.78;2.88;;;;;;;13.05;44.37;103279.66;4978318;28;20058;-62
2022/01/21 10:09:44;;;;;;;3.53;2.58;;;;;;;13.60;44.19;103273.84;4960958;28;20030;-63
2022/01/21 10:12:10;;;;;;;6.28;2.95;;;;;;;14.28;42.89;103278.75;4978162;28;20038;-63
2022/01/21 10:14:38;;;;;;;3.75;2.85;;;;;;;14.85;42.37;103281.53;4960732;28;20054;-63
2022/01/21 10:17:05;;;;;;;4.97;2.78;;;;;;;14.87;42.75;103287.69;4960617;28;20030;-63
2022/01/21 10:19:32;;;;;;;9.10;3.30;;;;;;;14.94;44.35;103283.63;4977888;28;20480;-63
2022/01/21 10:22:12;;;;;;;6.70;3.15;;;;;;;15.40;42.35;103277.03;4977878;28;20114;-63
2022/01/21 10:24:59;;;;;;;6.65;2.45;;;;;;;16.19;42.30;103288.78;4977832;28;20077;-63
2022/01/21 10:27:29;;;;;;;8.70;2.75;;;;;;;16.00;43.49;103290.13;4977914;28;20027;-62
2022/01/21 10:29:55;;;;;;;13.07;2.78;;;;;;;15.60;42.92;103289.25;4977807;28;20030;-63
2022/01/21 10:32:37;;;;;;;6.80;3.22;;;;;;;15.46;42.85;103287.47;4977427;28;20484;-63
2022/01/21 10:35:03;;;;;;;9.35;2.75;;;;;;;15.45;44.66;103296.50;4977762;28;20027;-62
2022/01/21 10:37:32;;;;;;;7.15;2.55;;;;;;;15.45;44.03;103295.63;4977437;28;20500;-63
2022/01/21 10:39:59;;;;;;;10.48;2.83;;;;;;;15.62;43.10;103293.59;4960344;28;20031;-63
2022/01/21 10:42:26;;;;;;;8.40;3.25;;;;;;;15.67;43.54;103296.84;4977399;28;20101;-63
2022/01/21 10:44:52;;;;;;;9.35;2.55;;;;;;;15.60;42.99;103290.13;4959952;28;20101;-63
2022/01/21 10:47:18;;;;;;;6.22;2.30;;;;;;;15.52;43.27;103300.53;4977473;28;20429;-63
2022/01/21 10:49:57;;;;;;;6.05;2.97;;;;;;;15.38;44.35;103295.13;4976981;28;20058;-63
2022/01/21 10:52:43;;;;;;;7.07;2.80;;;;;;;15.22;44.37;103297.09;4974740;28;20465;-63
2022/01/21 10:55:32;;;;;;;6.88;2.67;;;;;;;15.07;43.61;103300.81;4959511;28;20031;-63
2022/01/21 10:58:11;;;;;;;4.38;2.35;;;;;;;14.89;43.07;103291.16;4976994;28;20477;-63
2022/01/21 11:00:37;;;;;;;8.68;3.53;;;;;;;14.78;43.80;103286.44;4959917;28;20166;-63
2022/01/21 11:03:14;;;;;;;9.00;2.55;;;;;;;14.68;43.37;103287.13;4977132;28;20050;-62
2022/01/21 11:05:44;;;;;;;12.82;2.80;;;;;;;14.56;44.63;103283.34;4959758;28;20374;-62
2022/01/21 11:08:11;;;;;;;4.13;2.15;;;;;;;14.47;44.90;103281.22;4976813;28;20025;-62
2022/01/21 11:10:38;;;;;;;4.45;2.00;;;;;;;14.48;43.42;103280.25;4976896;28;20030;-62
2022/01/21 11:13:24;;;;;;;5.93;2.10;;;;;;;14.47;44.86;103276.69;4959232;28;20058;-63
2022/01/21 11:15:57;;;;;;;7.80;1.70;;;;;;;14.41;44.12;103277.06;4959148;28;20057;-62
2022/01/21 11:18:23;;;;;;;4.78;1.42;;;;;;;14.38;44.04;103277.25;4977001;28;20026;-63
2022/01/21 11:20:57;;;;;;;5.20;1.65;;;;;;;14.31;43.66;103273.16;4976538;28;20030;-63
2022/01/21 11:23:27;;;;;;;4.63;2.00;;;;;;;14.28;44.37;103278.75;4959681;28;20485;-63
2022/01/21 11:25:58;;;;;;;6.93;1.95;;;;;;;14.24;45.11;103284.41;4976479;28;20366;-62
2022/01/21 11:28:25;;;;;;;4.07;1.77;;;;;;;14.18;43.87;103282.94;4976556;28;20050;-63
2022/01/21 11:30:52;;;;;;;9.85;1.90;;;;;;;14.13;45.32;103263.47;4943209;28;20031;-62
2022/01/21 11:33:17;;;;;;;3.75;2.28;;;;;;;14.09;44.09;103256.56;4976277;28;20069;-62
2022/01/21 11:35:43;;;;;;;17.33;2.35;;;;;;;14.11;44.76;103249.25;4976137;28;20101;-63
2022/01/21 11:38:10;;;;;;;13.63;3.55;;;;;;;14.15;45.10;103255.31;4958951;28;20022;-62
2022/01/21 11:40:37;;;;;;;12.00;3.03;;;;;;;14.11;44.37;103248.38;4976398;28;20029;-62
2022/01/21 11:43:03;;;;;;;10.00;4.20;;;;;;;14.10;44.23;103242.09;4975985;28;20070;-63
2022/01/21 11:50:36;;;;;;;7.78;3.30;;;;;;;15.66;42.10;103234.81;4960388;28;20078;-63
2022/01/21 11:53:02;;;;;;;9.48;3.92;;;;;;;16.04;42.86;103216.84;4976092;28;20050;-63
2022/01/21 11:55:45;;;;;;;7.13;3.75;;;;;;;16.55;42.59;103220.47;4959057;28;20129;-62
2022/01/21 11:58:16;;;;;;;11.57;3.38;;;;;;;17.00;41.60;103205.41;4976472;28;20393;-63
2022/01/21 12:00:43;;;;;;;8.55;3.53;;;;;;;17.28;42.02;103196.97;4958651;28;20452;-63
2022/01/21 12:03:09;;;;;;;9.00;3.58;;;;;;;17.42;41.26;103206.78;4976068;28;20019;-63
2022/01/21 12:05:35;;;;;;;7.78;3.22;;;;;;;17.37;42.14;103190.88;4958901;28;20085;-64
2022/01/21 12:08:06;;;;;;;9.50;3.85;;;;;;;17.00;42.66;103191.03;4975883;28;20027;-63
2022/01/21 12:10:35;;;;;;;10.00;3.13;;;;;;;16.82;41.97;103195.94;4975656;28;20030;-63
2022/01/21 12:13:07;;;;;;;8.40;2.83;;;;;;;17.33;41.68;103192.09;4975724;28;20031;-63
2022/01/21 12:20:44;;;;;;;5.85;3.13;;;;;;;18.07;41.90;103195.47;4976442;28;20035;-63
2022/01/21 12:23:12;;;;;;;9.30;2.88;;;;;;;17.81;42.00;103192.94;4975828;28;20041;-63
2022/01/21 12:26:08;;;;;;;10.40;2.97;;;;;;;17.66;42.08;103191.44;4974976;28;20027;-63